createdAt,value
2018-12-20T00:00:51.526Z,18.43
2018-12-20T00:03:26.012Z,17.70
2018-12-20T00:06:01.679Z,26.07
2018-12-20T00:11:20.874Z,18.90
2018-12-20T00:13:56.140Z,19.80
2018-12-20T00:16:33.615Z,23.50
2018-12-20T00:19:10.452Z,20.27
2018-12-20T00:21:45.990Z,22.50
2018-12-20T00:24:21.622Z,27.83
2018-12-20T00:26:58.082Z,21.33
2018-12-20T00:29:32.023Z,20.47
2018-12-20T00:32:09.942Z,22.23
2018-12-20T00:34:52.358Z,20.27
2018-12-20T00:37:27.481Z,20.83
2018-12-20T00:40:06.432Z,19.93
2018-12-20T00:42:43.769Z,18.80
2018-12-20T00:45:19.645Z,19.07
2018-12-20T00:47:53.705Z,19.30
2018-12-20T00:53:11.994Z,20.73
2018-12-20T00:55:44.613Z,21.33
2018-12-20T00:58:20.906Z,20.33
2018-12-20T01:00:58.068Z,21.23
2018-12-20T01:03:31.483Z,22.67
2018-12-20T01:06:05.826Z,20.17
2018-12-20T01:08:41.665Z,21.23
2018-12-20T01:11:19.093Z,19.50
2018-12-20T01:13:52.661Z,19.73
2018-12-20T01:16:28.492Z,19.67
2018-12-20T01:19:04.504Z,20.57
2018-12-20T01:21:39.037Z,22.83
2018-12-20T01:24:12.788Z,18.47
2018-12-20T01:26:46.085Z,21.97
2018-12-20T01:29:21.264Z,18.60
2018-12-20T01:31:55.366Z,18.83
2018-12-20T01:34:29.540Z,19.13
2018-12-20T01:37:05.109Z,19.33
2018-12-20T01:39:39.606Z,22.53
2018-12-20T01:42:14.691Z,22.30
2018-12-20T01:44:53.428Z,18.97
2018-12-20T01:47:27.641Z,19.20
2018-12-20T01:50:02.575Z,22.20
2018-12-20T01:52:36.773Z,19.17
2018-12-20T01:55:10.366Z,23.67
2018-12-20T01:57:44.806Z,18.97
2018-12-20T02:00:19.995Z,18.80
2018-12-20T02:02:56.148Z,17.90
2018-12-20T02:05:30.267Z,18.20
2018-12-20T02:08:04.702Z,17.50
2018-12-20T02:10:40.878Z,18.50
2018-12-20T02:13:14.465Z,17.33
2018-12-20T02:15:48.138Z,18.33
2018-12-20T02:18:21.652Z,18.37
2018-12-20T02:20:57.038Z,18.73
2018-12-20T02:23:30.505Z,18.43
2018-12-20T02:26:07.590Z,20.60
2018-12-20T02:28:43.589Z,20.37
2018-12-20T02:31:19.197Z,22.10
2018-12-20T02:33:52.581Z,20.50
2018-12-20T02:36:26.649Z,23.33
2018-12-20T02:39:02.455Z,21.70
2018-12-20T02:41:38.959Z,18.63
2018-12-20T02:44:15.839Z,22.10
2018-12-20T02:46:51.121Z,23.63
2018-12-20T02:49:25.357Z,19.40
2018-12-20T02:51:58.843Z,18.30
2018-12-20T02:54:31.640Z,21.00
2018-12-20T02:57:04.354Z,19.67
2018-12-20T02:59:36.978Z,19.97
2018-12-20T03:02:10.560Z,19.03
2018-12-20T03:04:43.224Z,25.37
2018-12-20T03:07:16.115Z,20.93
2018-12-20T03:09:48.871Z,19.40
2018-12-20T03:12:21.753Z,20.70
2018-12-20T03:14:54.854Z,18.77
2018-12-20T03:17:27.750Z,20.20
2018-12-20T03:20:00.541Z,20.57
2018-12-20T03:22:33.265Z,18.80
2018-12-20T03:25:05.881Z,19.53
2018-12-20T03:27:38.665Z,21.73
2018-12-20T03:30:11.353Z,18.93
2018-12-20T03:32:44.289Z,18.20
2018-12-20T03:35:17.802Z,20.83
2018-12-20T03:37:50.583Z,22.90
2018-12-20T03:40:23.268Z,19.10
2018-12-20T03:42:56.233Z,22.20
2018-12-20T03:45:29.372Z,22.10
2018-12-20T03:48:02.362Z,20.13
2018-12-20T03:50:34.983Z,20.47
2018-12-20T03:53:07.793Z,19.97
2018-12-20T03:55:40.729Z,19.47
2018-12-20T03:58:13.545Z,20.07
2018-12-20T04:00:46.401Z,19.87
2018-12-20T04:03:19.286Z,20.53
2018-12-20T04:05:51.925Z,20.43
2018-12-20T04:08:24.686Z,19.83
2018-12-20T04:10:57.267Z,26.23
2018-12-20T04:13:29.939Z,22.17
2018-12-20T04:16:02.805Z,26.50
2018-12-20T04:18:35.665Z,23.93
2018-12-20T04:21:08.339Z,23.27
2018-12-20T04:23:41.010Z,23.10
2018-12-20T04:26:13.679Z,23.47
2018-12-20T04:28:46.658Z,25.50
2018-12-20T04:31:19.467Z,23.73
2018-12-20T04:33:52.097Z,25.00
2018-12-20T04:36:24.755Z,26.80
2018-12-20T04:38:57.741Z,24.27
2018-12-20T04:41:30.707Z,33.63
2018-12-20T04:44:03.672Z,31.70
2018-12-20T04:46:36.364Z,35.03
2018-12-20T04:49:09.316Z,24.67
2018-12-20T04:51:42.359Z,23.93
2018-12-20T04:54:15.350Z,39.07
2018-12-20T04:56:48.172Z,30.17
2018-12-20T04:59:20.949Z,31.27
2018-12-20T05:01:53.774Z,24.83
2018-12-20T05:04:26.627Z,32.77
2018-12-20T05:06:59.292Z,35.50
2018-12-20T05:09:31.944Z,25.77
2018-12-20T05:12:04.928Z,24.80
2018-12-20T05:14:37.858Z,25.30
2018-12-20T05:17:10.679Z,24.60
2018-12-20T05:19:43.679Z,37.53
2018-12-20T05:22:16.519Z,34.40
2018-12-20T05:24:49.239Z,40.27
2018-12-20T05:27:21.876Z,29.27
2018-12-20T05:29:54.628Z,27.57
2018-12-20T05:32:27.260Z,31.20
2018-12-20T05:35:00.113Z,29.70
2018-12-20T05:37:33.213Z,25.73
2018-12-20T05:40:06.705Z,21.93
2018-12-20T05:42:39.610Z,21.17
2018-12-20T05:45:13.467Z,24.93
2018-12-20T05:47:46.305Z,33.93
2018-12-20T05:50:19.157Z,41.07
2018-12-20T05:52:52.001Z,29.37
2018-12-20T05:55:24.728Z,29.63
2018-12-20T05:57:57.655Z,25.43
2018-12-20T06:00:30.466Z,24.10
2018-12-20T06:03:03.041Z,24.13
2018-12-20T06:05:35.794Z,25.27
2018-12-20T06:08:08.462Z,36.23
2018-12-20T06:10:41.232Z,22.13
2018-12-20T06:13:14.139Z,23.60
2018-12-20T06:15:47.153Z,27.00
2018-12-20T06:18:19.985Z,29.90
2018-12-20T06:20:52.823Z,41.33
2018-12-20T06:23:25.415Z,26.70
2018-12-20T06:25:58.061Z,29.80
2018-12-20T06:28:30.647Z,29.10
2018-12-20T06:31:03.309Z,24.50
2018-12-20T06:33:35.955Z,29.70
2018-12-20T06:36:08.683Z,26.93
2018-12-20T06:38:41.449Z,31.90
2018-12-20T06:41:14.112Z,28.60
2018-12-20T06:43:46.739Z,23.03
2018-12-20T06:46:21.274Z,29.53
2018-12-20T06:48:54.182Z,26.03
2018-12-20T06:51:26.865Z,23.83
2018-12-20T06:53:59.504Z,23.40
2018-12-20T06:56:32.164Z,21.60
2018-12-20T06:59:04.896Z,23.90
2018-12-20T07:01:37.785Z,29.63
2018-12-20T07:04:10.358Z,24.33
2018-12-20T07:06:42.971Z,23.90
2018-12-20T07:09:15.736Z,37.17
2018-12-20T07:11:48.364Z,25.87
2018-12-20T07:14:20.991Z,29.27
2018-12-20T07:16:53.737Z,24.43
2018-12-20T07:19:26.337Z,24.60
2018-12-20T07:21:58.980Z,31.47
2018-12-20T07:24:31.645Z,27.50
2018-12-20T07:27:04.440Z,28.63
2018-12-20T07:29:37.069Z,25.40
2018-12-20T07:32:09.693Z,26.00
2018-12-20T07:34:47.899Z,35.33
2018-12-20T07:37:17.238Z,26.37
2018-12-20T07:39:49.873Z,25.00
2018-12-20T07:42:22.593Z,26.30
2018-12-20T07:44:55.375Z,24.10
2018-12-20T07:47:28.063Z,22.57
2018-12-20T07:50:00.646Z,33.27
2018-12-20T07:52:33.358Z,26.80
2018-12-20T07:55:05.976Z,26.40
2018-12-20T07:57:38.597Z,36.57
2018-12-20T08:00:11.448Z,28.97
2018-12-20T08:02:44.057Z,25.70
2018-12-20T08:05:16.692Z,28.20
2018-12-20T08:07:49.333Z,28.67
2018-12-20T08:10:21.921Z,26.03
2018-12-20T08:12:54.672Z,27.60
2018-12-20T08:15:27.286Z,25.93
2018-12-20T08:17:59.930Z,25.60
2018-12-20T08:20:32.545Z,25.17
2018-12-20T08:23:05.147Z,32.10
2018-12-20T08:25:37.771Z,21.67
2018-12-20T08:28:10.385Z,29.10
2018-12-20T08:30:42.974Z,46.90
2018-12-20T08:33:15.671Z,25.63
2018-12-20T08:35:48.264Z,24.20
2018-12-20T08:38:21.078Z,23.17
2018-12-20T08:40:53.705Z,59.83
2018-12-20T08:43:26.408Z,31.07
2018-12-20T08:45:59.038Z,29.13
2018-12-20T08:48:31.775Z,25.27
2018-12-20T08:51:04.492Z,35.83
2018-12-20T08:53:37.134Z,30.03
2018-12-20T08:56:09.697Z,25.37
2018-12-20T08:58:43.344Z,26.00
2018-12-20T09:01:15.945Z,32.37
2018-12-20T09:03:48.641Z,26.73
2018-12-20T09:06:21.200Z,31.13
2018-12-20T09:08:53.803Z,32.50
2018-12-20T09:11:26.408Z,32.07
2018-12-20T09:13:59.017Z,32.47
2018-12-20T09:16:31.647Z,30.80
2018-12-20T09:19:04.567Z,30.43
2018-12-20T09:21:37.271Z,26.97
2018-12-20T09:24:09.916Z,27.37
2018-12-20T09:26:42.509Z,29.20
2018-12-20T09:29:15.227Z,30.73
2018-12-20T09:31:47.812Z,32.97
2018-12-20T09:34:20.493Z,29.97
2018-12-20T09:36:53.096Z,27.57
2018-12-20T09:39:25.824Z,28.10
2018-12-20T09:41:58.534Z,27.93
2018-12-20T09:44:31.243Z,27.30
2018-12-20T09:47:11.931Z,28.57
2018-12-20T09:49:44.211Z,27.63
2018-12-20T09:52:16.960Z,27.80
2018-12-20T09:54:49.661Z,26.50
2018-12-20T09:57:22.281Z,30.47
2018-12-20T09:59:55.351Z,28.83
2018-12-20T10:02:27.963Z,32.23
2018-12-20T10:05:00.730Z,30.47
2018-12-20T10:07:33.351Z,28.97
2018-12-20T10:10:06.912Z,34.77
2018-12-20T10:12:39.520Z,28.13
2018-12-20T10:15:12.258Z,26.80
2018-12-20T10:17:44.909Z,26.90
2018-12-20T10:20:17.738Z,26.77
2018-12-20T10:22:50.550Z,24.17
2018-12-20T10:25:23.301Z,28.23
2018-12-20T10:27:55.954Z,25.63
2018-12-20T10:30:28.611Z,27.80
2018-12-20T10:33:01.255Z,26.73
2018-12-20T10:35:33.990Z,26.10
2018-12-20T10:38:06.823Z,25.63
2018-12-20T10:40:39.561Z,26.03
2018-12-20T10:43:12.205Z,27.30
2018-12-20T10:45:45.363Z,25.63
2018-12-20T10:48:18.048Z,25.53
2018-12-20T10:50:50.761Z,29.93
2018-12-20T10:53:23.631Z,28.23
2018-12-20T10:55:56.483Z,24.63
2018-12-20T10:58:29.115Z,24.33
2018-12-20T11:01:07.251Z,23.40
2018-12-20T11:03:46.148Z,27.83
2018-12-20T11:06:24.365Z,28.90
2018-12-20T11:09:02.815Z,23.57
2018-12-20T11:14:48.253Z,24.20
2018-12-20T11:17:20.980Z,25.87
2018-12-20T11:19:54.260Z,25.93
2018-12-20T11:22:26.972Z,23.53
2018-12-20T11:24:59.631Z,25.33
2018-12-20T11:27:32.303Z,25.53
2018-12-20T11:30:06.600Z,24.77
2018-12-20T11:32:39.517Z,24.73
2018-12-20T11:35:12.281Z,26.90
2018-12-20T11:37:44.909Z,24.97
2018-12-20T11:40:17.583Z,24.77
2018-12-20T11:42:50.356Z,27.40
2018-12-20T11:45:22.963Z,23.67
2018-12-20T11:47:55.626Z,25.57
2018-12-20T11:50:29.248Z,26.67
2018-12-20T11:53:02.125Z,25.63
2018-12-20T11:55:34.699Z,23.20
2018-12-20T11:58:07.538Z,23.60
2018-12-20T12:00:40.152Z,24.90
2018-12-20T12:03:12.852Z,24.80
2018-12-20T12:05:45.452Z,21.87
2018-12-20T12:08:18.199Z,27.47
2018-12-20T12:10:50.804Z,24.97
2018-12-20T12:13:23.557Z,22.20
2018-12-20T12:15:56.221Z,21.40
2018-12-20T12:18:29.004Z,22.07
2018-12-20T12:21:01.616Z,25.77
2018-12-20T12:23:34.242Z,25.23
2018-12-20T12:26:06.834Z,22.13
2018-12-20T12:28:39.517Z,23.47
2018-12-20T12:31:12.359Z,22.20
2018-12-20T12:33:45.102Z,23.77
2018-12-20T12:36:17.687Z,22.73
2018-12-20T12:38:50.452Z,22.60
2018-12-20T12:41:23.107Z,22.97
2018-12-20T12:43:55.754Z,22.60
2018-12-20T12:46:28.387Z,21.43
2018-12-20T12:49:01.018Z,21.63
2018-12-20T12:51:33.659Z,26.57
2018-12-20T12:54:06.306Z,24.50
2018-12-20T12:56:38.890Z,22.93
2018-12-20T12:59:11.597Z,22.57
2018-12-20T13:01:44.373Z,23.20
2018-12-20T13:04:17.007Z,23.03
2018-12-20T13:06:49.746Z,23.93
2018-12-20T13:09:22.388Z,23.63
2018-12-20T13:11:55.090Z,21.77
2018-12-20T13:14:27.736Z,23.33
2018-12-20T13:17:00.400Z,22.10
2018-12-20T13:19:33.182Z,22.87
2018-12-20T13:22:05.839Z,22.97
2018-12-20T13:24:40.259Z,22.43
2018-12-20T13:27:13.194Z,20.67
2018-12-20T13:29:45.888Z,20.57
2018-12-20T13:32:18.547Z,21.20
2018-12-20T13:34:51.322Z,23.70
2018-12-20T13:37:23.932Z,22.60
2018-12-20T13:39:56.685Z,22.67
2018-12-20T13:42:29.306Z,21.13
2018-12-20T13:45:02.095Z,22.13
2018-12-20T13:47:34.777Z,19.50
2018-12-20T13:50:08.061Z,19.63
2018-12-20T13:52:40.646Z,22.30
2018-12-20T13:55:13.383Z,22.70
2018-12-20T13:57:45.979Z,19.03
2018-12-20T14:00:18.622Z,18.53
2018-12-20T14:02:51.236Z,20.50
2018-12-20T14:05:23.893Z,26.77
2018-12-20T14:07:58.882Z,20.03
2018-12-20T14:10:31.263Z,21.27
2018-12-20T14:13:03.887Z,19.37
2018-12-20T14:15:36.634Z,20.90
2018-12-20T14:18:09.239Z,18.77
2018-12-20T14:20:41.914Z,20.70
2018-12-20T14:23:14.559Z,20.57
2018-12-20T14:25:47.211Z,21.10
2018-12-20T14:28:19.854Z,21.27
2018-12-20T14:30:52.590Z,19.60
2018-12-20T14:33:25.302Z,23.70
2018-12-20T14:35:57.948Z,20.90
2018-12-20T14:38:30.889Z,22.33
2018-12-20T14:41:03.616Z,21.90
2018-12-20T14:43:36.249Z,21.13
2018-12-20T14:46:09.035Z,26.00
2018-12-20T14:48:41.650Z,22.30
2018-12-20T14:51:14.370Z,21.60
2018-12-20T14:53:47.024Z,20.90
2018-12-20T14:56:20.144Z,22.57
2018-12-20T14:58:52.791Z,24.90
2018-12-20T15:01:25.434Z,21.77
2018-12-20T15:03:58.048Z,22.80
2018-12-20T15:06:30.822Z,21.33
2018-12-20T15:09:05.543Z,21.17
2018-12-20T15:11:38.325Z,18.93
2018-12-20T15:14:10.936Z,22.13
2018-12-20T15:16:43.573Z,18.80
2018-12-20T15:19:16.176Z,23.33
2018-12-20T15:21:48.908Z,19.97
2018-12-20T15:24:21.488Z,20.73
2018-12-20T15:26:54.821Z,19.67
2018-12-20T15:29:27.441Z,21.30
2018-12-20T15:32:00.160Z,21.53
2018-12-20T15:34:32.842Z,20.93
2018-12-20T15:37:05.536Z,23.60
2018-12-20T15:39:38.205Z,20.70
2018-12-20T15:42:11.019Z,26.73
2018-12-20T15:44:43.781Z,21.73
2018-12-20T15:47:16.651Z,22.13
2018-12-20T15:49:49.274Z,19.10
2018-12-20T15:52:21.960Z,24.17
2018-12-20T15:54:54.605Z,32.73
2018-12-20T15:57:28.291Z,20.57
2018-12-20T16:00:02.839Z,23.27
2018-12-20T16:02:35.958Z,35.73
2018-12-20T16:05:09.047Z,19.83
2018-12-20T16:07:41.757Z,18.27
2018-12-20T16:10:14.346Z,18.67
2018-12-20T16:12:47.074Z,17.27
2018-12-20T16:15:20.076Z,17.93
2018-12-20T16:17:53.653Z,17.53
2018-12-20T16:20:26.285Z,19.47
2018-12-20T16:22:58.929Z,18.57
2018-12-20T16:25:31.663Z,38.63
2018-12-20T16:28:04.398Z,17.97
2018-12-20T16:30:37.032Z,23.80
2018-12-20T16:33:09.690Z,27.50
2018-12-20T16:35:42.321Z,18.30
2018-12-20T16:38:15.168Z,18.10
2018-12-20T16:40:47.818Z,18.20
2018-12-20T16:43:20.708Z,28.60
2018-12-20T16:45:53.320Z,17.90
2018-12-20T16:48:25.977Z,26.53
2018-12-20T16:50:58.570Z,20.50
2018-12-20T16:53:31.267Z,23.53
2018-12-20T16:56:03.889Z,25.30
2018-12-20T16:58:36.544Z,27.93
2018-12-20T17:01:09.138Z,33.27
2018-12-20T17:03:42.073Z,20.50
2018-12-20T17:06:14.710Z,19.10
2018-12-20T17:08:48.398Z,23.53
2018-12-20T17:11:21.415Z,15.80
2018-12-20T17:13:54.023Z,18.27
2018-12-20T17:16:26.621Z,19.50
2018-12-20T17:18:59.355Z,16.53
2018-12-20T17:21:32.012Z,16.73
2018-12-20T17:24:04.823Z,16.57
2018-12-20T17:26:37.424Z,19.97
2018-12-20T17:29:10.111Z,16.63
2018-12-20T17:31:42.683Z,14.70
2018-12-20T17:34:15.312Z,24.57
2018-12-20T17:36:48.030Z,18.13
2018-12-20T17:39:20.665Z,15.70
2018-12-20T17:41:53.264Z,15.53
2018-12-20T17:44:25.874Z,14.40
2018-12-20T17:46:58.449Z,16.07
2018-12-20T17:49:31.076Z,16.73
2018-12-20T17:52:03.709Z,14.90
2018-12-20T17:54:36.436Z,16.90
2018-12-20T17:57:09.045Z,18.97
2018-12-20T17:59:41.676Z,14.87
2018-12-20T18:02:14.264Z,17.27
2018-12-20T18:04:46.927Z,19.10
2018-12-20T18:07:19.570Z,13.63
2018-12-20T18:09:52.243Z,24.00
2018-12-20T18:12:24.852Z,13.87
2018-12-20T18:14:57.574Z,32.10
2018-12-20T18:17:30.160Z,16.30
2018-12-20T18:20:02.896Z,14.23
2018-12-20T18:22:35.481Z,21.03
2018-12-20T18:25:08.203Z,15.40
2018-12-20T18:27:40.796Z,20.00
2018-12-20T18:30:13.525Z,16.70
2018-12-20T18:32:46.124Z,16.33
2018-12-20T18:35:18.752Z,16.97
2018-12-20T18:37:51.330Z,14.10
2018-12-20T18:40:23.952Z,18.50
2018-12-20T18:42:56.566Z,13.50
2018-12-20T18:45:29.297Z,17.07
2018-12-20T18:48:01.883Z,15.70
2018-12-20T18:50:34.837Z,16.07
2018-12-20T18:53:07.430Z,23.23
2018-12-20T18:55:40.125Z,26.13
2018-12-20T18:58:12.732Z,16.53
2018-12-20T19:00:45.349Z,19.87
2018-12-20T19:03:17.944Z,19.37
2018-12-20T19:05:50.569Z,25.07
2018-12-20T19:08:23.151Z,24.30
2018-12-20T19:10:55.887Z,18.43
2018-12-20T19:13:28.508Z,17.97
2018-12-20T19:16:01.130Z,16.97
2018-12-20T19:18:33.734Z,18.57
2018-12-20T19:21:06.380Z,18.10
2018-12-20T19:23:39.106Z,15.20
2018-12-20T19:26:11.864Z,30.97
2018-12-20T19:28:44.521Z,25.93
2018-12-20T19:31:17.218Z,20.33
2018-12-20T19:33:52.125Z,18.77
2018-12-20T19:36:24.602Z,15.53
2018-12-20T19:38:57.181Z,14.63
2018-12-20T19:41:29.802Z,22.57
2018-12-20T19:44:02.396Z,19.07
2018-12-20T19:46:35.113Z,13.90
2018-12-20T19:49:07.693Z,13.57
2018-12-20T19:51:40.351Z,12.67
2018-12-20T19:54:12.946Z,15.80
2018-12-20T19:56:45.655Z,19.33
2018-12-20T19:59:18.572Z,13.33
2018-12-20T20:01:51.329Z,14.20
2018-12-20T20:04:24.002Z,15.40
2018-12-20T20:06:56.729Z,12.37
2018-12-20T20:09:29.341Z,11.33
2018-12-20T20:12:01.975Z,15.43
2018-12-20T20:14:34.568Z,12.73
2018-12-20T20:17:07.185Z,11.80
2018-12-20T20:19:39.891Z,12.13
2018-12-20T20:22:12.524Z,12.27
2018-12-20T20:24:45.130Z,12.97
2018-12-20T20:27:17.779Z,9.93
2018-12-20T20:29:50.381Z,11.57
2018-12-20T20:32:23.004Z,15.97
2018-12-20T20:34:55.596Z,14.53
2018-12-20T20:37:28.294Z,9.17
2018-12-20T20:40:00.882Z,8.50
2018-12-20T20:42:33.584Z,9.13
2018-12-20T20:45:06.623Z,9.70
2018-12-20T20:47:39.509Z,9.53
2018-12-20T20:50:12.167Z,9.57
2018-12-20T20:52:44.876Z,8.70
2018-12-20T20:55:17.454Z,8.47
2018-12-20T20:57:50.076Z,8.63
2018-12-20T21:00:22.691Z,16.67
2018-12-20T21:02:55.325Z,7.47
2018-12-20T21:05:27.904Z,9.30
2018-12-20T21:08:00.533Z,12.43
2018-12-20T21:10:33.159Z,11.63
2018-12-20T21:13:05.782Z,8.60
2018-12-20T21:15:38.416Z,8.77
2018-12-20T21:18:11.097Z,8.90
2018-12-20T21:20:43.688Z,8.03
2018-12-20T21:23:16.387Z,7.43
2018-12-20T21:25:48.985Z,14.60
2018-12-20T21:28:21.627Z,8.50
2018-12-20T21:30:54.221Z,9.77
2018-12-20T21:33:26.918Z,9.73
2018-12-20T21:35:59.491Z,9.67
2018-12-20T21:38:32.099Z,9.13
2018-12-20T21:41:04.689Z,10.40
2018-12-20T21:43:37.455Z,8.60
2018-12-20T21:46:10.045Z,9.47
2018-12-20T21:48:42.674Z,11.03
2018-12-20T21:51:15.280Z,8.87
2018-12-20T21:53:54.821Z,10.47
2018-12-20T21:56:23.073Z,8.20
2018-12-20T21:58:55.891Z,7.83
2018-12-20T22:01:28.480Z,7.47
2018-12-20T22:04:01.113Z,12.67
2018-12-20T22:06:33.700Z,10.63
2018-12-20T22:09:06.452Z,9.30
2018-12-20T22:11:39.049Z,8.33
2018-12-20T22:14:12.138Z,8.33
2018-12-20T22:16:45.413Z,7.93
2018-12-20T22:19:18.855Z,8.17
2018-12-20T22:21:51.514Z,10.30
2018-12-20T22:24:24.163Z,7.73
2018-12-20T22:26:56.884Z,7.93
2018-12-20T22:29:29.515Z,7.30
2018-12-20T22:32:02.112Z,9.67
2018-12-20T22:34:34.777Z,6.80
2018-12-20T22:37:07.351Z,7.13
2018-12-20T22:39:39.984Z,9.47
2018-12-20T22:42:12.614Z,9.07
2018-12-20T22:44:45.258Z,8.27
2018-12-20T22:47:17.873Z,8.10
2018-12-20T22:49:50.565Z,8.40
2018-12-20T22:52:23.198Z,8.07
2018-12-20T22:54:55.844Z,9.00
2018-12-20T22:57:28.528Z,8.83
2018-12-20T23:00:01.252Z,9.33
2018-12-20T23:02:33.856Z,10.97
2018-12-20T23:05:06.712Z,9.27
2018-12-20T23:07:39.311Z,8.17
2018-12-20T23:10:11.939Z,8.93
2018-12-20T23:12:44.564Z,8.10
2018-12-20T23:15:17.173Z,9.07
2018-12-20T23:17:49.787Z,9.07
2018-12-20T23:20:22.480Z,8.13
2018-12-20T23:22:55.211Z,14.50
2018-12-20T23:25:27.950Z,8.87
2018-12-20T23:28:00.716Z,9.77
2018-12-20T23:30:33.451Z,8.57
2018-12-20T23:33:06.187Z,11.33
2018-12-20T23:35:39.067Z,9.07
2018-12-20T23:38:11.787Z,9.73
2018-12-20T23:40:44.585Z,11.83
2018-12-20T23:43:17.679Z,9.03
2018-12-20T23:45:50.544Z,9.53
2018-12-20T23:48:23.147Z,10.10
2018-12-20T23:50:55.864Z,9.80
2018-12-20T23:53:28.658Z,10.33
2018-12-20T23:56:01.295Z,11.90
2018-12-20T23:58:33.912Z,9.37
